sensor_id;sensor_type;location;lat;lon;timestamp;temperature;humidity
20246;DHT22;10281;54.406;18.556;2022-09-09T00:01:33;15.10;99.90
20246;DHT22;10281;54.406;18.556;2022-09-09T00:04:05;15.00;99.90
20246;DHT22;10281;54.406;18.556;2022-09-09T00:06:35;15.00;99.90
20246;DHT22;10281;54.406;18.556;2022-09-09T00:09:21;15.10;99.90
20246;DHT22;10281;54.406;18.556;2022-09-09T00:11:53;15.10;99.90
20246;DHT22;10281;54.406;18.556;2022-09-09T00:14:32;15.00;99.90
20246;DHT22;10281;54.406;18.556;2022-09-09T00:16:57;15.00;99.90
20246;DHT22;10281;54.406;18.556;2022-09-09T00:19:33;15.00;99.90
20246;DHT22;10281;54.406;18.556;2022-09-09T00:22:20;14.90;99.90
20246;DHT22;10281;54.406;18.556;2022-09-09T00:24:55;15.00;99.90
20246;DHT22;10281;54.406;18.556;2022-09-09T00:27:40;15.00;99.90
20246;DHT22;10281;54.406;18.556;2022-09-09T00:30:15;14.90;99.90
20246;DHT22;10281;54.406;18.556;2022-09-09T00:32:45;14.90;99.90
20246;DHT22;10281;54.406;18.556;2022-09-09T00:35:18;14.90;99.90
20246;DHT22;10281;54.406;18.556;2022-09-09T00:37:47;14.90;99.90
20246;DHT22;10281;54.406;18.556;2022-09-09T00:40:27;14.90;99.90
20246;DHT22;10281;54.406;18.556;2022-09-09T00:45:37;14.90;99.90
20246;DHT22;10281;54.406;18.556;2022-09-09T00:48:06;14.90;99.90
20246;DHT22;10281;54.406;18.556;2022-09-09T00:50:42;14.90;99.90
20246;DHT22;10281;54.406;18.556;2022-09-09T00:53:30;14.90;99.90
20246;DHT22;10281;54.406;18.556;2022-09-09T00:56:13;14.90;99.90
20246;DHT22;10281;54.406;18.556;2022-09-09T00:58:43;14.90;99.90
20246;DHT22;10281;54.406;18.556;2022-09-09T01:01:14;14.90;99.90
20246;DHT22;10281;54.406;18.556;2022-09-09T01:03:46;14.90;99.90
20246;DHT22;10281;54.406;18.556;2022-09-09T01:06:36;14.90;99.90
20246;DHT22;10281;54.406;18.556;2022-09-09T01:09:14;14.90;99.90
20246;DHT22;10281;54.406;18.556;2022-09-09T01:14:24;15.00;99.90
20246;DHT22;10281;54.406;18.556;2022-09-09T01:16:54;15.00;99.90
20246;DHT22;10281;54.406;18.556;2022-09-09T01:19:59;15.00;99.90
20246;DHT22;10281;54.406;18.556;2022-09-09T01:22:38;15.00;99.90
20246;DHT22;10281;54.406;18.556;2022-09-09T01:25:15;15.00;99.90
20246;DHT22;10281;54.406;18.556;2022-09-09T01:27:42;15.00;99.90
20246;DHT22;10281;54.406;18.556;2022-09-09T01:30:11;15.10;99.90
20246;DHT22;10281;54.406;18.556;2022-09-09T01:32:42;15.10;99.90
20246;DHT22;10281;54.406;18.556;2022-09-09T01:35:46;15.10;99.90
20246;DHT22;10281;54.406;18.556;2022-09-09T01:37:56;15.10;99.90
20246;DHT22;10281;54.406;18.556;2022-09-09T01:40:24;15.10;99.90
20246;DHT22;10281;54.406;18.556;2022-09-09T01:42:51;15.10;99.90
20246;DHT22;10281;54.406;18.556;2022-09-09T01:45:18;15.10;99.90
20246;DHT22;10281;54.406;18.556;2022-09-09T01:47:46;15.10;99.90
20246;DHT22;10281;54.406;18.556;2022-09-09T01:50:15;15.20;99.90
20246;DHT22;10281;54.406;18.556;2022-09-09T01:52:44;15.20;99.90
20246;DHT22;10281;54.406;18.556;2022-09-09T01:55:11;15.20;99.90
20246;DHT22;10281;54.406;18.556;2022-09-09T01:57:46;15.10;99.90
20246;DHT22;10281;54.406;18.556;2022-09-09T02:00:12;15.10;99.90
20246;DHT22;10281;54.406;18.556;2022-09-09T02:03:00;15.10;99.90
20246;DHT22;10281;54.406;18.556;2022-09-09T02:05:41;15.10;99.90
20246;DHT22;10281;54.406;18.556;2022-09-09T02:08:15;15.10;99.90
20246;DHT22;10281;54.406;18.556;2022-09-09T02:10:47;15.10;99.90
20246;DHT22;10281;54.406;18.556;2022-09-09T02:13:16;15.10;99.90
20246;DHT22;10281;54.406;18.556;2022-09-09T02:16:00;15.10;99.90
20246;DHT22;10281;54.406;18.556;2022-09-09T02:18:35;15.00;99.90
20246;DHT22;10281;54.406;18.556;2022-09-09T02:21:02;15.10;99.90
20246;DHT22;10281;54.406;18.556;2022-09-09T02:23:29;15.10;99.90
20246;DHT22;10281;54.406;18.556;2022-09-09T02:25:58;15.10;99.90
20246;DHT22;10281;54.406;18.556;2022-09-09T02:28:26;15.00;99.90
20246;DHT22;10281;54.406;18.556;2022-09-09T02:30:55;15.00;99.90
20246;DHT22;10281;54.406;18.556;2022-09-09T02:33:28;15.00;99.90
20246;DHT22;10281;54.406;18.556;2022-09-09T02:35:55;15.00;99.90
20246;DHT22;10281;54.406;18.556;2022-09-09T02:38:26;15.00;99.90
20246;DHT22;10281;54.406;18.556;2022-09-09T02:40:54;15.00;99.90
20246;DHT22;10281;54.406;18.556;2022-09-09T02:43:21;15.00;99.90
20246;DHT22;10281;54.406;18.556;2022-09-09T02:45:53;15.10;99.90
20246;DHT22;10281;54.406;18.556;2022-09-09T02:48:26;15.00;99.90
20246;DHT22;10281;54.406;18.556;2022-09-09T02:50:57;15.00;99.90
20246;DHT22;10281;54.406;18.556;2022-09-09T02:53:29;15.00;99.90
20246;DHT22;10281;54.406;18.556;2022-09-09T02:55:58;15.00;99.90
20246;DHT22;10281;54.406;18.556;2022-09-09T02:58:25;15.00;99.90
20246;DHT22;10281;54.406;18.556;2022-09-09T03:00:52;15.00;99.90
20246;DHT22;10281;54.406;18.556;2022-09-09T03:03:19;15.00;99.90
20246;DHT22;10281;54.406;18.556;2022-09-09T03:05:47;15.00;99.90
20246;DHT22;10281;54.406;18.556;2022-09-09T03:08:14;15.00;99.90
20246;DHT22;10281;54.406;18.556;2022-09-09T03:10:41;15.00;99.90
20246;DHT22;10281;54.406;18.556;2022-09-09T03:13:08;15.00;99.90
20246;DHT22;10281;54.406;18.556;2022-09-09T03:15:35;15.00;99.90
20246;DHT22;10281;54.406;18.556;2022-09-09T03:18:01;15.00;99.90
20246;DHT22;10281;54.406;18.556;2022-09-09T03:20:29;15.00;99.90
20246;DHT22;10281;54.406;18.556;2022-09-09T03:22:56;15.00;99.90
20246;DHT22;10281;54.406;18.556;2022-09-09T03:25:23;14.90;99.90
20246;DHT22;10281;54.406;18.556;2022-09-09T03:27:53;14.80;99.90
20246;DHT22;10281;54.406;18.556;2022-09-09T03:30:25;14.70;99.90
20246;DHT22;10281;54.406;18.556;2022-09-09T03:32:52;14.60;99.90
20246;DHT22;10281;54.406;18.556;2022-09-09T03:35:19;14.40;99.90
20246;DHT22;10281;54.406;18.556;2022-09-09T03:37:46;14.20;99.90
20246;DHT22;10281;54.406;18.556;2022-09-09T03:40:13;14.10;99.90
20246;DHT22;10281;54.406;18.556;2022-09-09T03:42:40;13.90;99.90
20246;DHT22;10281;54.406;18.556;2022-09-09T03:45:08;13.70;99.90
20246;DHT22;10281;54.406;18.556;2022-09-09T03:47:36;13.60;99.90
20246;DHT22;10281;54.406;18.556;2022-09-09T03:50:04;13.50;99.90
20246;DHT22;10281;54.406;18.556;2022-09-09T03:52:35;13.30;99.90
20246;DHT22;10281;54.406;18.556;2022-09-09T03:55:02;13.20;99.90
20246;DHT22;10281;54.406;18.556;2022-09-09T03:57:28;13.20;99.90
20246;DHT22;10281;54.406;18.556;2022-09-09T03:59:56;13.20;99.90
20246;DHT22;10281;54.406;18.556;2022-09-09T04:02:23;13.10;99.90
20246;DHT22;10281;54.406;18.556;2022-09-09T04:04:50;13.10;99.90
20246;DHT22;10281;54.406;18.556;2022-09-09T04:07:17;13.00;99.90
20246;DHT22;10281;54.406;18.556;2022-09-09T04:09:43;13.00;99.90
20246;DHT22;10281;54.406;18.556;2022-09-09T04:12:10;12.90;99.90
20246;DHT22;10281;54.406;18.556;2022-09-09T04:14:39;12.90;99.90
20246;DHT22;10281;54.406;18.556;2022-09-09T04:17:06;12.80;99.90
20246;DHT22;10281;54.406;18.556;2022-09-09T04:19:33;12.80;99.90
20246;DHT22;10281;54.406;18.556;2022-09-09T04:22:00;12.80;99.90
20246;DHT22;10281;54.406;18.556;2022-09-09T04:24:26;12.80;99.90
20246;DHT22;10281;54.406;18.556;2022-09-09T04:26:55;12.70;99.90
20246;DHT22;10281;54.406;18.556;2022-09-09T04:29:21;12.80;99.90
20246;DHT22;10281;54.406;18.556;2022-09-09T04:31:48;12.70;99.90
20246;DHT22;10281;54.406;18.556;2022-09-09T04:34:15;12.70;99.90
20246;DHT22;10281;54.406;18.556;2022-09-09T04:36:41;12.70;99.90
20246;DHT22;10281;54.406;18.556;2022-09-09T04:39:09;12.60;99.90
20246;DHT22;10281;54.406;18.556;2022-09-09T04:41:36;12.60;99.90
20246;DHT22;10281;54.406;18.556;2022-09-09T04:44:03;12.60;99.90
20246;DHT22;10281;54.406;18.556;2022-09-09T04:46:30;12.60;99.90
20246;DHT22;10281;54.406;18.556;2022-09-09T04:48:56;12.60;99.90
20246;DHT22;10281;54.406;18.556;2022-09-09T04:51:23;12.60;99.90
20246;DHT22;10281;54.406;18.556;2022-09-09T04:53:50;12.70;99.90
20246;DHT22;10281;54.406;18.556;2022-09-09T04:56:19;12.70;99.90
20246;DHT22;10281;54.406;18.556;2022-09-09T04:58:46;12.70;99.90
20246;DHT22;10281;54.406;18.556;2022-09-09T05:01:15;12.70;99.90
20246;DHT22;10281;54.406;18.556;2022-09-09T05:03:45;12.70;99.90
20246;DHT22;10281;54.406;18.556;2022-09-09T05:06:14;12.60;99.90
20246;DHT22;10281;54.406;18.556;2022-09-09T05:08:42;12.70;99.90
20246;DHT22;10281;54.406;18.556;2022-09-09T05:11:19;12.70;99.90
20246;DHT22;10281;54.406;18.556;2022-09-09T05:13:46;12.70;99.90
20246;DHT22;10281;54.406;18.556;2022-09-09T05:16:13;12.70;99.90
20246;DHT22;10281;54.406;18.556;2022-09-09T05:18:41;12.70;99.90
20246;DHT22;10281;54.406;18.556;2022-09-09T05:21:09;12.70;99.90
20246;DHT22;10281;54.406;18.556;2022-09-09T05:23:37;12.70;99.90
20246;DHT22;10281;54.406;18.556;2022-09-09T05:26:04;12.70;99.90
20246;DHT22;10281;54.406;18.556;2022-09-09T05:28:33;12.70;99.90
20246;DHT22;10281;54.406;18.556;2022-09-09T05:31:04;12.70;99.90
20246;DHT22;10281;54.406;18.556;2022-09-09T05:33:34;12.70;99.90
20246;DHT22;10281;54.406;18.556;2022-09-09T05:36:07;12.70;99.90
20246;DHT22;10281;54.406;18.556;2022-09-09T05:38:34;12.70;99.90
20246;DHT22;10281;54.406;18.556;2022-09-09T05:41:03;12.70;99.90
20246;DHT22;10281;54.406;18.556;2022-09-09T05:43:30;12.70;99.90
20246;DHT22;10281;54.406;18.556;2022-09-09T05:46:01;12.70;99.90
20246;DHT22;10281;54.406;18.556;2022-09-09T05:48:31;12.70;99.90
20246;DHT22;10281;54.406;18.556;2022-09-09T05:50:59;12.60;99.90
20246;DHT22;10281;54.406;18.556;2022-09-09T05:53:26;12.60;99.90
20246;DHT22;10281;54.406;18.556;2022-09-09T05:56:12;12.60;99.90
20246;DHT22;10281;54.406;18.556;2022-09-09T05:58:42;12.60;99.90
20246;DHT22;10281;54.406;18.556;2022-09-09T06:01:15;12.50;99.90
20246;DHT22;10281;54.406;18.556;2022-09-09T06:03:44;12.50;99.90
20246;DHT22;10281;54.406;18.556;2022-09-09T06:06:13;12.40;99.90
20246;DHT22;10281;54.406;18.556;2022-09-09T06:08:42;12.40;99.90
20246;DHT22;10281;54.406;18.556;2022-09-09T06:11:11;12.40;99.90
20246;DHT22;10281;54.406;18.556;2022-09-09T06:13:38;12.40;99.90
20246;DHT22;10281;54.406;18.556;2022-09-09T06:16:10;12.40;99.90
20246;DHT22;10281;54.406;18.556;2022-09-09T06:18:38;12.40;99.90
20246;DHT22;10281;54.406;18.556;2022-09-09T06:21:07;12.40;99.90
20246;DHT22;10281;54.406;18.556;2022-09-09T06:23:34;12.40;99.90
20246;DHT22;10281;54.406;18.556;2022-09-09T06:26:03;12.40;99.90
20246;DHT22;10281;54.406;18.556;2022-09-09T06:28:32;12.40;99.90
20246;DHT22;10281;54.406;18.556;2022-09-09T06:31:00;12.40;99.90
20246;DHT22;10281;54.406;18.556;2022-09-09T06:33:31;12.40;99.90
20246;DHT22;10281;54.406;18.556;2022-09-09T06:35:58;12.40;99.90
20246;DHT22;10281;54.406;18.556;2022-09-09T06:38:24;12.40;99.90
20246;DHT22;10281;54.406;18.556;2022-09-09T06:40:53;12.40;99.90
20246;DHT22;10281;54.406;18.556;2022-09-09T06:43:22;12.40;99.90
20246;DHT22;10281;54.406;18.556;2022-09-09T06:45:57;12.40;99.90
20246;DHT22;10281;54.406;18.556;2022-09-09T06:48:25;12.30;99.90
20246;DHT22;10281;54.406;18.556;2022-09-09T06:51:15;12.30;99.90
20246;DHT22;10281;54.406;18.556;2022-09-09T06:53:45;12.30;99.90
20246;DHT22;10281;54.406;18.556;2022-09-09T06:56:28;12.30;99.90
20246;DHT22;10281;54.406;18.556;2022-09-09T06:58:57;12.20;99.90
20246;DHT22;10281;54.406;18.556;2022-09-09T07:01:26;12.20;99.90
20246;DHT22;10281;54.406;18.556;2022-09-09T07:03:55;12.20;99.90
20246;DHT22;10281;54.406;18.556;2022-09-09T07:06:26;12.20;99.90
20246;DHT22;10281;54.406;18.556;2022-09-09T07:08:56;12.20;99.90
20246;DHT22;10281;54.406;18.556;2022-09-09T07:11:26;12.20;99.90
20246;DHT22;10281;54.406;18.556;2022-09-09T07:13:54;12.20;99.90
20246;DHT22;10281;54.406;18.556;2022-09-09T07:16:22;12.20;99.90
20246;DHT22;10281;54.406;18.556;2022-09-09T07:18:51;12.20;99.90
20246;DHT22;10281;54.406;18.556;2022-09-09T07:21:19;12.20;99.90
20246;DHT22;10281;54.406;18.556;2022-09-09T07:23:47;12.20;99.90
20246;DHT22;10281;54.406;18.556;2022-09-09T07:26:16;12.20;99.90
20246;DHT22;10281;54.406;18.556;2022-09-09T07:28:45;12.20;99.90
20246;DHT22;10281;54.406;18.556;2022-09-09T07:31:16;12.20;99.90
20246;DHT22;10281;54.406;18.556;2022-09-09T07:33:44;12.20;99.90
20246;DHT22;10281;54.406;18.556;2022-09-09T07:36:16;12.10;99.90
20246;DHT22;10281;54.406;18.556;2022-09-09T07:38:45;12.20;99.90
20246;DHT22;10281;54.406;18.556;2022-09-09T07:41:17;12.10;99.90
20246;DHT22;10281;54.406;18.556;2022-09-09T07:43:46;12.10;99.90
20246;DHT22;10281;54.406;18.556;2022-09-09T07:46:15;12.10;99.90
20246;DHT22;10281;54.406;18.556;2022-09-09T07:48:45;12.10;99.90
20246;DHT22;10281;54.406;18.556;2022-09-09T07:51:15;12.20;99.90
20246;DHT22;10281;54.406;18.556;2022-09-09T07:53:45;12.10;99.90
20246;DHT22;10281;54.406;18.556;2022-09-09T07:56:15;12.20;99.90
20246;DHT22;10281;54.406;18.556;2022-09-09T07:58:45;12.20;99.90
20246;DHT22;10281;54.406;18.556;2022-09-09T08:01:16;12.20;99.90
20246;DHT22;10281;54.406;18.556;2022-09-09T08:03:45;12.20;99.90
20246;DHT22;10281;54.406;18.556;2022-09-09T08:06:12;12.20;99.90
20246;DHT22;10281;54.406;18.556;2022-09-09T08:08:40;12.20;99.90
20246;DHT22;10281;54.406;18.556;2022-09-09T08:11:11;12.20;99.90
20246;DHT22;10281;54.406;18.556;2022-09-09T08:13:41;12.30;99.90
20246;DHT22;10281;54.406;18.556;2022-09-09T08:16:14;12.20;99.90
20246;DHT22;10281;54.406;18.556;2022-09-09T08:18:41;12.30;99.90
20246;DHT22;10281;54.406;18.556;2022-09-09T08:21:12;12.30;99.90
20246;DHT22;10281;54.406;18.556;2022-09-09T08:23:40;12.30;99.90
20246;DHT22;10281;54.406;18.556;2022-09-09T08:26:14;12.20;99.90
20246;DHT22;10281;54.406;18.556;2022-09-09T08:28:41;12.20;99.90
20246;DHT22;10281;54.406;18.556;2022-09-09T08:31:16;12.20;99.90
20246;DHT22;10281;54.406;18.556;2022-09-09T08:33:44;12.20;99.90
20246;DHT22;10281;54.406;18.556;2022-09-09T08:36:17;12.20;99.90
20246;DHT22;10281;54.406;18.556;2022-09-09T08:38:48;12.30;99.90
20246;DHT22;10281;54.406;18.556;2022-09-09T08:41:31;12.30;99.90
20246;DHT22;10281;54.406;18.556;2022-09-09T08:44:06;12.40;99.90
20246;DHT22;10281;54.406;18.556;2022-09-09T08:46:42;12.40;99.90
20246;DHT22;10281;54.406;18.556;2022-09-09T08:51:45;12.40;99.90
20246;DHT22;10281;54.406;18.556;2022-09-09T08:54:13;12.40;99.90
20246;DHT22;10281;54.406;18.556;2022-09-09T08:56:40;12.40;99.90
20246;DHT22;10281;54.406;18.556;2022-09-09T08:59:09;12.40;99.90
20246;DHT22;10281;54.406;18.556;2022-09-09T09:01:50;12.40;99.90
20246;DHT22;10281;54.406;18.556;2022-09-09T09:04:35;12.40;99.90
20246;DHT22;10281;54.406;18.556;2022-09-09T09:07:07;12.30;99.90
20246;DHT22;10281;54.406;18.556;2022-09-09T09:09:44;12.30;99.90
20246;DHT22;10281;54.406;18.556;2022-09-09T09:12:19;12.40;99.90
20246;DHT22;10281;54.406;18.556;2022-09-09T09:14:47;12.40;99.90
20246;DHT22;10281;54.406;18.556;2022-09-09T09:17:18;12.40;99.90
20246;DHT22;10281;54.406;18.556;2022-09-09T09:19:47;12.40;99.90
20246;DHT22;10281;54.406;18.556;2022-09-09T09:22:19;12.40;99.90
20246;DHT22;10281;54.406;18.556;2022-09-09T09:24:53;12.50;99.90
20246;DHT22;10281;54.406;18.556;2022-09-09T09:29:59;12.50;99.90
20246;DHT22;10281;54.406;18.556;2022-09-09T09:32:30;12.50;99.90
20246;DHT22;10281;54.406;18.556;2022-09-09T09:34:58;12.60;99.90
20246;DHT22;10281;54.406;18.556;2022-09-09T09:37:29;12.60;99.90
20246;DHT22;10281;54.406;18.556;2022-09-09T09:40:07;12.60;99.90
20246;DHT22;10281;54.406;18.556;2022-09-09T09:42:26;12.60;99.90
20246;DHT22;10281;54.406;18.556;2022-09-09T09:44:53;12.60;99.90
20246;DHT22;10281;54.406;18.556;2022-09-09T09:47:21;12.60;99.90
20246;DHT22;10281;54.406;18.556;2022-09-09T09:49:55;12.70;99.90
20246;DHT22;10281;54.406;18.556;2022-09-09T09:52:26;12.70;99.90
20246;DHT22;10281;54.406;18.556;2022-09-09T09:54:56;12.70;99.90
20246;DHT22;10281;54.406;18.556;2022-09-09T09:57:26;12.70;99.90
20246;DHT22;10281;54.406;18.556;2022-09-09T10:00:02;12.80;99.90
20246;DHT22;10281;54.406;18.556;2022-09-09T10:02:38;12.80;99.90
20246;DHT22;10281;54.406;18.556;2022-09-09T10:05:14;12.80;99.90
20246;DHT22;10281;54.406;18.556;2022-09-09T10:07:41;12.80;99.90
20246;DHT22;10281;54.406;18.556;2022-09-09T10:10:19;12.90;99.90
20246;DHT22;10281;54.406;18.556;2022-09-09T10:12:59;12.90;99.90
20246;DHT22;10281;54.406;18.556;2022-09-09T10:15:31;12.90;99.90
20246;DHT22;10281;54.406;18.556;2022-09-09T10:18:07;12.90;99.90
20246;DHT22;10281;54.406;18.556;2022-09-09T10:20:54;12.90;99.90
20246;DHT22;10281;54.406;18.556;2022-09-09T10:23:28;12.90;99.90
20246;DHT22;10281;54.406;18.556;2022-09-09T10:28:40;12.90;99.90
20246;DHT22;10281;54.406;18.556;2022-09-09T10:31:17;12.90;99.90
20246;DHT22;10281;54.406;18.556;2022-09-09T10:33:50;13.00;99.90
20246;DHT22;10281;54.406;18.556;2022-09-09T10:36:20;12.90;99.90
20246;DHT22;10281;54.406;18.556;2022-09-09T10:38:58;13.00;99.90
20246;DHT22;10281;54.406;18.556;2022-09-09T10:41:31;13.00;99.90
20246;DHT22;10281;54.406;18.556;2022-09-09T10:44:13;13.00;99.90
20246;DHT22;10281;54.406;18.556;2022-09-09T10:46:58;13.00;99.90
20246;DHT22;10281;54.406;18.556;2022-09-09T10:49:30;13.00;99.90
20246;DHT22;10281;54.406;18.556;2022-09-09T10:52:15;13.10;99.90
20246;DHT22;10281;54.406;18.556;2022-09-09T10:54:50;13.10;99.90
20246;DHT22;10281;54.406;18.556;2022-09-09T10:57:24;13.20;99.90
20246;DHT22;10281;54.406;18.556;2022-09-09T10:59:51;13.20;99.90
20246;DHT22;10281;54.406;18.556;2022-09-09T11:02:28;13.20;99.90
20246;DHT22;10281;54.406;18.556;2022-09-09T11:05:05;13.30;99.90
20246;DHT22;10281;54.406;18.556;2022-09-09T11:07:41;13.30;99.90
20246;DHT22;10281;54.406;18.556;2022-09-09T11:10:18;13.30;99.90
20246;DHT22;10281;54.406;18.556;2022-09-09T11:12:47;13.30;99.90
20246;DHT22;10281;54.406;18.556;2022-09-09T11:15:20;13.40;99.90
20246;DHT22;10281;54.406;18.556;2022-09-09T11:17:53;13.40;99.90
20246;DHT22;10281;54.406;18.556;2022-09-09T11:20:21;13.50;99.90
20246;DHT22;10281;54.406;18.556;2022-09-09T11:22:53;13.50;99.90
20246;DHT22;10281;54.406;18.556;2022-09-09T11:25:26;13.60;99.90
20246;DHT22;10281;54.406;18.556;2022-09-09T11:28:06;13.50;99.90
20246;DHT22;10281;54.406;18.556;2022-09-09T11:33:29;13.50;99.90
20246;DHT22;10281;54.406;18.556;2022-09-09T11:36:03;13.60;99.90
20246;DHT22;10281;54.406;18.556;2022-09-09T11:38:38;13.60;99.90
20246;DHT22;10281;54.406;18.556;2022-09-09T11:41:06;13.60;99.90
20246;DHT22;10281;54.406;18.556;2022-09-09T11:43:43;13.70;99.90
20246;DHT22;10281;54.406;18.556;2022-09-09T11:46:10;13.60;99.90
20246;DHT22;10281;54.406;18.556;2022-09-09T11:48:43;13.70;99.90
20246;DHT22;10281;54.406;18.556;2022-09-09T11:51:24;13.70;99.90
20246;DHT22;10281;54.406;18.556;2022-09-09T11:53:52;13.80;99.90
20246;DHT22;10281;54.406;18.556;2022-09-09T11:56:29;13.70;99.90
20246;DHT22;10281;54.406;18.556;2022-09-09T11:59:05;13.70;99.90
20246;DHT22;10281;54.406;18.556;2022-09-09T12:01:37;13.70;99.90
20246;DHT22;10281;54.406;18.556;2022-09-09T12:04:16;13.70;99.90
20246;DHT22;10281;54.406;18.556;2022-09-09T12:06:50;13.80;99.90
20246;DHT22;10281;54.406;18.556;2022-09-09T12:09:33;13.80;99.90
20246;DHT22;10281;54.406;18.556;2022-09-09T12:12:25;13.80;99.90
20246;DHT22;10281;54.406;18.556;2022-09-09T12:17:57;13.80;99.90
20246;DHT22;10281;54.406;18.556;2022-09-09T12:20:37;13.70;99.90
20246;DHT22;10281;54.406;18.556;2022-09-09T12:23:24;13.70;99.90
20246;DHT22;10281;54.406;18.556;2022-09-09T12:25:58;13.70;99.90
20246;DHT22;10281;54.406;18.556;2022-09-09T12:31:35;13.60;99.90
20246;DHT22;10281;54.406;18.556;2022-09-09T12:34:09;13.60;99.90
20246;DHT22;10281;54.406;18.556;2022-09-09T12:36:37;13.60;99.90
20246;DHT22;10281;54.406;18.556;2022-09-09T12:39:21;13.60;99.90
20246;DHT22;10281;54.406;18.556;2022-09-09T12:41:53;13.50;99.90
20246;DHT22;10281;54.406;18.556;2022-09-09T12:44:24;13.50;99.90
20246;DHT22;10281;54.406;18.556;2022-09-09T12:46:52;13.50;99.90
20246;DHT22;10281;54.406;18.556;2022-09-09T12:49:28;13.50;99.90
20246;DHT22;10281;54.406;18.556;2022-09-09T12:52:04;13.50;99.90
20246;DHT22;10281;54.406;18.556;2022-09-09T12:54:34;13.60;99.90
20246;DHT22;10281;54.406;18.556;2022-09-09T12:57:02;13.60;99.90
20246;DHT22;10281;54.406;18.556;2022-09-09T12:59:40;13.60;99.90
20246;DHT22;10281;54.406;18.556;2022-09-09T13:02:16;13.50;99.90
20246;DHT22;10281;54.406;18.556;2022-09-09T13:04:40;13.60;99.90
20246;DHT22;10281;54.406;18.556;2022-09-09T13:07:07;13.50;99.90
20246;DHT22;10281;54.406;18.556;2022-09-09T13:09:39;13.50;99.90
20246;DHT22;10281;54.406;18.556;2022-09-09T13:12:11;13.50;99.90
20246;DHT22;10281;54.406;18.556;2022-09-09T13:14:38;13.50;99.90
20246;DHT22;10281;54.406;18.556;2022-09-09T13:17:06;13.50;99.90
20246;DHT22;10281;54.406;18.556;2022-09-09T13:19:35;13.50;99.90
20246;DHT22;10281;54.406;18.556;2022-09-09T13:22:14;13.60;99.90
20246;DHT22;10281;54.406;18.556;2022-09-09T13:24:42;13.60;99.90
20246;DHT22;10281;54.406;18.556;2022-09-09T13:27:28;13.70;99.90
20246;DHT22;10281;54.406;18.556;2022-09-09T13:29:52;13.70;99.90
20246;DHT22;10281;54.406;18.556;2022-09-09T13:32:23;13.70;99.90
20246;DHT22;10281;54.406;18.556;2022-09-09T13:34:57;13.80;99.90
20246;DHT22;10281;54.406;18.556;2022-09-09T13:37:33;13.80;99.90
20246;DHT22;10281;54.406;18.556;2022-09-09T13:40:01;13.80;99.90
20246;DHT22;10281;54.406;18.556;2022-09-09T13:42:31;13.80;99.90
20246;DHT22;10281;54.406;18.556;2022-09-09T13:45:01;13.70;99.90
20246;DHT22;10281;54.406;18.556;2022-09-09T13:47:32;13.70;99.90
20246;DHT22;10281;54.406;18.556;2022-09-09T13:50:26;13.70;99.90
20246;DHT22;10281;54.406;18.556;2022-09-09T13:52:54;13.70;99.90
20246;DHT22;10281;54.406;18.556;2022-09-09T13:55:23;13.70;99.90
20246;DHT22;10281;54.406;18.556;2022-09-09T13:57:54;13.70;99.90
20246;DHT22;10281;54.406;18.556;2022-09-09T14:00:22;13.70;99.90
20246;DHT22;10281;54.406;18.556;2022-09-09T14:02:50;13.70;99.90
20246;DHT22;10281;54.406;18.556;2022-09-09T14:05:18;13.70;99.90
20246;DHT22;10281;54.406;18.556;2022-09-09T14:07:46;13.70;99.90
20246;DHT22;10281;54.406;18.556;2022-09-09T14:10:13;13.70;99.90
20246;DHT22;10281;54.406;18.556;2022-09-09T14:12:40;13.60;99.90
20246;DHT22;10281;54.406;18.556;2022-09-09T14:15:09;13.60;99.90
20246;DHT22;10281;54.406;18.556;2022-09-09T14:17:36;13.60;99.90
20246;DHT22;10281;54.406;18.556;2022-09-09T14:20:04;13.60;99.90
20246;DHT22;10281;54.406;18.556;2022-09-09T14:22:35;13.60;99.90
20246;DHT22;10281;54.406;18.556;2022-09-09T14:25:03;13.60;99.90
20246;DHT22;10281;54.406;18.556;2022-09-09T14:27:31;13.70;99.90
20246;DHT22;10281;54.406;18.556;2022-09-09T14:29:59;13.60;99.90
20246;DHT22;10281;54.406;18.556;2022-09-09T14:32:26;13.70;99.90
20246;DHT22;10281;54.406;18.556;2022-09-09T14:34:53;13.70;99.90
20246;DHT22;10281;54.406;18.556;2022-09-09T14:37:20;13.70;99.90
20246;DHT22;10281;54.406;18.556;2022-09-09T14:39:46;13.70;99.90
20246;DHT22;10281;54.406;18.556;2022-09-09T14:42:15;13.70;99.90
20246;DHT22;10281;54.406;18.556;2022-09-09T14:44:42;13.70;99.90
20246;DHT22;10281;54.406;18.556;2022-09-09T14:47:09;13.70;99.90
20246;DHT22;10281;54.406;18.556;2022-09-09T14:49:36;13.70;99.90
20246;DHT22;10281;54.406;18.556;2022-09-09T14:52:04;13.70;99.90
20246;DHT22;10281;54.406;18.556;2022-09-09T14:54:31;13.70;99.90
20246;DHT22;10281;54.406;18.556;2022-09-09T14:56:58;13.70;99.90
20246;DHT22;10281;54.406;18.556;2022-09-09T14:59:25;13.70;99.90
20246;DHT22;10281;54.406;18.556;2022-09-09T15:01:53;13.70;99.90
20246;DHT22;10281;54.406;18.556;2022-09-09T15:04:19;13.60;99.90
20246;DHT22;10281;54.406;18.556;2022-09-09T15:06:46;13.70;99.90
20246;DHT22;10281;54.406;18.556;2022-09-09T15:09:14;13.70;99.90
20246;DHT22;10281;54.406;18.556;2022-09-09T15:11:43;13.70;99.90
20246;DHT22;10281;54.406;18.556;2022-09-09T15:14:10;13.60;99.90
20246;DHT22;10281;54.406;18.556;2022-09-09T15:16:38;13.70;99.90
20246;DHT22;10281;54.406;18.556;2022-09-09T15:19:05;13.70;99.90
20246;DHT22;10281;54.406;18.556;2022-09-09T15:21:34;13.70;99.90
20246;DHT22;10281;54.406;18.556;2022-09-09T15:24:01;13.70;99.90
20246;DHT22;10281;54.406;18.556;2022-09-09T15:26:28;13.60;99.90
20246;DHT22;10281;54.406;18.556;2022-09-09T15:28:56;13.70;99.90
20246;DHT22;10281;54.406;18.556;2022-09-09T15:31:27;13.70;99.90
20246;DHT22;10281;54.406;18.556;2022-09-09T15:33:57;13.70;99.90
20246;DHT22;10281;54.406;18.556;2022-09-09T15:36:31;13.70;99.90
20246;DHT22;10281;54.406;18.556;2022-09-09T15:38:59;13.60;99.90
20246;DHT22;10281;54.406;18.556;2022-09-09T15:41:27;13.60;99.90
20246;DHT22;10281;54.406;18.556;2022-09-09T15:43:55;13.60;99.90
20246;DHT22;10281;54.406;18.556;2022-09-09T15:46:28;13.60;99.90
20246;DHT22;10281;54.406;18.556;2022-09-09T15:48:57;13.60;99.90
20246;DHT22;10281;54.406;18.556;2022-09-09T15:51:25;13.60;99.90
20246;DHT22;10281;54.406;18.556;2022-09-09T15:53:55;13.60;99.90
20246;DHT22;10281;54.406;18.556;2022-09-09T15:56:23;13.50;99.90
20246;DHT22;10281;54.406;18.556;2022-09-09T15:58:50;13.60;99.90
20246;DHT22;10281;54.406;18.556;2022-09-09T16:01:18;13.70;99.90